createdAt,value
2023-04-15T00:01:55.470Z,14.03
2023-04-15T00:04:25.232Z,12.83
2023-04-15T00:06:54.647Z,13.07
2023-04-15T00:09:23.007Z,13.97
2023-04-15T00:11:51.942Z,15.40
2023-04-15T00:14:20.045Z,14.47
2023-04-15T00:16:50.076Z,13.50
2023-04-15T00:19:19.078Z,13.50
2023-04-15T00:21:48.599Z,13.30
2023-04-15T00:24:16.678Z,14.10
2023-04-15T00:26:44.824Z,13.90
2023-04-15T00:29:12.967Z,12.40
2023-04-15T00:31:41.120Z,13.60
2023-04-15T00:34:09.396Z,13.10
2023-04-15T00:36:37.701Z,13.50
2023-04-15T00:39:07.237Z,12.57
2023-04-15T00:41:35.407Z,12.60
2023-04-15T00:44:03.541Z,13.77
2023-04-15T00:46:32.869Z,13.03
2023-04-15T00:49:01.876Z,12.27
2023-04-15T00:51:31.102Z,14.03
2023-04-15T00:53:59.155Z,12.67
2023-04-15T00:56:30.107Z,13.23
2023-04-15T00:58:59.680Z,14.27
2023-04-15T01:01:28.719Z,10.20
2023-04-15T01:03:58.809Z,12.43
2023-04-15T01:06:29.180Z,13.63
2023-04-15T01:08:58.675Z,12.83
2023-04-15T01:11:29.132Z,13.37
2023-04-15T01:13:59.586Z,14.03
2023-04-15T01:16:28.766Z,13.73
2023-04-15T01:18:57.610Z,14.37
2023-04-15T01:21:26.623Z,15.00
2023-04-15T01:23:56.866Z,13.90
2023-04-15T01:26:27.389Z,13.63
2023-04-15T01:28:56.399Z,12.70
2023-04-15T01:31:25.519Z,13.83
2023-04-15T01:33:53.767Z,13.67
2023-04-15T01:36:21.945Z,12.93
2023-04-15T01:38:50.141Z,13.07
2023-04-15T01:41:20.065Z,13.50
2023-04-15T01:43:49.573Z,13.17
2023-04-15T01:46:17.634Z,13.47
2023-04-15T01:48:45.796Z,13.17
2023-04-15T01:51:14.089Z,13.17
2023-04-15T01:53:42.185Z,13.80
2023-04-15T01:56:10.330Z,14.70
2023-04-15T01:58:38.575Z,14.23
2023-04-15T02:01:10.354Z,13.60
2023-04-15T02:03:39.450Z,13.37
2023-04-15T02:06:07.634Z,14.03
2023-04-15T02:08:35.837Z,14.00
2023-04-15T02:11:04.117Z,14.97
2023-04-15T02:13:33.304Z,13.93
2023-04-15T02:16:01.477Z,16.43
2023-04-15T02:18:31.112Z,15.40
2023-04-15T02:20:59.451Z,14.50
2023-04-15T02:23:27.514Z,15.87
2023-04-15T02:25:55.697Z,14.50
2023-04-15T02:28:24.030Z,14.27
2023-04-15T02:30:53.497Z,15.97
2023-04-15T02:33:23.048Z,14.00
2023-04-15T02:35:53.258Z,14.50
2023-04-15T02:38:21.667Z,15.40
2023-04-15T02:40:50.433Z,16.20
2023-04-15T02:43:18.701Z,14.77
2023-04-15T02:45:48.139Z,16.50
2023-04-15T02:48:18.930Z,15.40
2023-04-15T02:50:47.973Z,16.40
2023-04-15T02:53:19.926Z,17.50
2023-04-15T02:55:48.233Z,16.70
2023-04-15T02:58:16.307Z,17.93
2023-04-15T03:00:44.589Z,17.20
2023-04-15T03:03:15.241Z,19.00
2023-04-15T03:05:43.560Z,19.07
2023-04-15T03:08:11.993Z,18.73
2023-04-15T03:10:41.636Z,19.27
2023-04-15T03:13:09.982Z,17.80
2023-04-15T03:15:38.924Z,18.37
2023-04-15T03:18:07.912Z,17.40
2023-04-15T03:20:37.268Z,19.20
2023-04-15T03:23:05.675Z,19.07
2023-04-15T03:25:34.013Z,18.67
2023-04-15T03:28:03.561Z,19.70
2023-04-15T03:30:31.733Z,18.37
2023-04-15T03:32:59.938Z,19.23
2023-04-15T03:35:28.275Z,19.47
2023-04-15T03:37:56.313Z,21.80
2023-04-15T03:40:24.458Z,21.00
2023-04-15T03:42:52.575Z,19.67
2023-04-15T03:45:22.002Z,19.63
2023-04-15T03:47:50.797Z,19.20
2023-04-15T03:50:18.956Z,18.80
2023-04-15T03:52:48.244Z,19.97
2023-04-15T03:55:17.455Z,19.23
2023-04-15T03:57:45.633Z,19.50
2023-04-15T04:00:13.971Z,18.70
2023-04-15T04:02:43.654Z,20.20
2023-04-15T04:05:12.115Z,19.23
2023-04-15T04:07:43.036Z,18.23
2023-04-15T04:10:14.441Z,18.53
2023-04-15T04:12:42.557Z,17.00
2023-04-15T04:15:11.489Z,18.20
2023-04-15T04:17:39.677Z,18.57
2023-04-15T04:20:10.461Z,19.33
2023-04-15T04:22:39.802Z,19.20
2023-04-15T04:25:09.008Z,20.53
2023-04-15T04:27:37.169Z,19.87
2023-04-15T04:30:06.471Z,20.57
2023-04-15T04:32:34.680Z,19.87
2023-04-15T04:35:02.863Z,22.30
2023-04-15T04:37:32.391Z,22.27
2023-04-15T04:40:00.601Z,23.33
2023-04-15T04:42:28.946Z,22.83
2023-04-15T04:44:57.447Z,22.93
2023-04-15T04:47:25.528Z,24.07
2023-04-15T04:49:53.650Z,25.33
2023-04-15T04:52:21.727Z,23.20
2023-04-15T04:54:51.230Z,22.13
2023-04-15T04:57:19.397Z,24.47
2023-04-15T04:59:47.589Z,26.57
2023-04-15T05:02:16.069Z,24.90
2023-04-15T05:04:44.202Z,26.17
2023-04-15T05:07:12.511Z,26.20
2023-04-15T05:09:40.935Z,27.80
2023-04-15T05:12:14.997Z,26.60
2023-04-15T05:14:43.491Z,26.10
2023-04-15T05:17:12.521Z,26.53
2023-04-15T05:19:40.615Z,27.17
2023-04-15T05:22:09.267Z,28.50
2023-04-15T05:24:37.482Z,29.80
2023-04-15T05:27:05.933Z,29.00
2023-04-15T05:29:35.631Z,30.03
2023-04-15T05:32:03.798Z,29.47
2023-04-15T05:34:31.919Z,29.40
2023-04-15T05:37:00.025Z,27.13
2023-04-15T05:39:28.078Z,29.17
2023-04-15T05:41:56.251Z,29.00
2023-04-15T05:44:24.324Z,29.40
2023-04-15T05:46:53.796Z,31.07
2023-04-15T05:49:21.945Z,28.33
2023-04-15T05:51:50.131Z,27.60
2023-04-15T05:54:20.121Z,27.77
2023-04-15T05:56:48.604Z,27.53
2023-04-15T05:59:16.783Z,28.10
2023-04-15T06:01:45.269Z,27.27
2023-04-15T06:04:15.448Z,28.30
2023-04-15T06:06:43.810Z,29.43
2023-04-15T06:09:12.208Z,27.47
2023-04-15T06:11:41.418Z,27.50
2023-04-15T06:14:09.638Z,26.63
2023-04-15T06:16:37.920Z,30.53
2023-04-15T06:19:06.139Z,27.10
2023-04-15T06:21:35.656Z,27.37
2023-04-15T06:24:03.954Z,26.90
2023-04-15T06:26:32.290Z,27.50
2023-04-15T06:29:00.770Z,26.93
2023-04-15T06:31:29.272Z,27.73
2023-04-15T06:34:02.035Z,28.10
2023-04-15T06:36:30.459Z,27.50
2023-04-15T06:39:00.244Z,27.27
2023-04-15T06:41:28.501Z,28.17
2023-04-15T06:43:57.054Z,27.37
2023-04-15T06:50:11.714Z,27.37
2023-04-15T06:52:39.912Z,27.53
2023-04-15T06:55:10.206Z,27.60
2023-04-15T06:57:38.285Z,25.97
2023-04-15T07:00:07.496Z,25.63
2023-04-15T07:02:35.738Z,27.23
2023-04-15T07:05:04.747Z,26.10
2023-04-15T07:07:33.149Z,27.00
2023-04-15T07:10:02.229Z,25.97
2023-04-15T07:12:31.885Z,24.43
2023-04-15T07:19:26.003Z,25.10
2023-04-15T07:21:54.250Z,25.37
2023-04-15T07:24:26.684Z,24.00
2023-04-15T07:26:57.196Z,23.33
2023-04-15T07:29:28.203Z,25.23
2023-04-15T07:31:57.334Z,23.40
2023-04-15T07:34:25.892Z,22.87
2023-04-15T07:36:54.046Z,20.93
2023-04-15T07:39:22.334Z,20.70
2023-04-15T07:41:50.639Z,22.00
2023-04-15T07:44:18.727Z,20.00
2023-04-15T07:46:48.712Z,19.93
2023-04-15T07:49:17.496Z,18.67
2023-04-15T07:51:45.986Z,18.80
2023-04-15T07:54:14.214Z,18.07
2023-04-15T07:56:42.418Z,17.20
2023-04-15T07:59:11.719Z,16.43
2023-04-15T08:01:39.878Z,16.33
2023-04-15T08:04:09.681Z,15.37
2023-04-15T08:06:39.910Z,16.23
2023-04-15T08:09:08.401Z,16.30
2023-04-15T08:11:36.607Z,14.87
2023-04-15T08:14:04.871Z,15.17
2023-04-15T08:16:35.179Z,15.40
2023-04-15T08:19:03.592Z,14.60
2023-04-15T08:21:33.430Z,13.27
2023-04-15T08:24:01.709Z,13.40
2023-04-15T08:26:29.956Z,12.63
2023-04-15T08:28:58.429Z,11.50
2023-04-15T08:31:28.670Z,13.00
2023-04-15T08:33:58.328Z,14.80
2023-04-15T08:36:27.079Z,12.70
2023-04-15T08:38:56.668Z,14.30
2023-04-15T08:41:26.393Z,16.70
2023-04-15T08:43:58.020Z,14.93
2023-04-15T08:46:27.052Z,14.13
2023-04-15T08:48:58.125Z,12.00
2023-04-15T08:51:27.714Z,10.40
2023-04-15T08:53:57.478Z,10.70
2023-04-15T08:56:27.688Z,9.50
2023-04-15T08:58:56.257Z,9.07
2023-04-15T09:01:24.708Z,8.97
2023-04-15T09:03:54.609Z,8.80
2023-04-15T09:06:25.818Z,8.23
2023-04-15T09:08:54.205Z,8.13
2023-04-15T09:11:24.718Z,8.20
2023-04-15T09:13:52.908Z,8.00
2023-04-15T09:16:21.091Z,8.43
2023-04-15T09:18:50.138Z,8.47
2023-04-15T09:21:19.263Z,8.30
2023-04-15T09:23:58.688Z,8.03
2023-04-15T09:26:36.260Z,7.70
2023-04-15T09:29:09.455Z,7.20
2023-04-15T09:31:37.995Z,6.73
2023-04-15T09:34:06.926Z,6.30
2023-04-15T09:36:53.743Z,6.67
2023-04-15T09:39:22.423Z,6.43
2023-04-15T09:42:07.882Z,7.60
2023-04-15T09:44:36.622Z,6.00
2023-04-15T09:47:04.801Z,7.30
2023-04-15T09:49:32.927Z,6.97
2023-04-15T09:52:05.481Z,5.57
2023-04-15T09:54:36.445Z,6.17
2023-04-15T09:57:10.175Z,6.20
2023-04-15T09:59:38.689Z,6.10
2023-04-15T10:02:08.186Z,6.50
2023-04-15T10:04:40.780Z,6.77
2023-04-15T10:07:10.677Z,6.80
2023-04-15T10:09:40.434Z,7.20
2023-04-15T10:12:10.744Z,7.27
2023-04-15T10:14:39.838Z,6.20
2023-04-15T10:17:12.254Z,6.40
2023-04-15T10:19:41.416Z,6.13
2023-04-15T10:22:10.404Z,6.97
2023-04-15T10:24:40.324Z,6.30
2023-04-15T10:27:11.263Z,7.33
2023-04-15T10:29:39.897Z,7.50
2023-04-15T10:32:08.590Z,7.50
2023-04-15T10:34:37.642Z,8.30
2023-04-15T10:37:06.142Z,8.60
2023-04-15T10:39:42.848Z,8.63
2023-04-15T10:42:13.942Z,8.90
2023-04-15T10:44:45.124Z,8.80
2023-04-15T10:47:14.797Z,9.67
2023-04-15T10:49:48.575Z,10.67
2023-04-15T10:52:18.166Z,11.00
2023-04-15T10:54:46.744Z,10.30
2023-04-15T10:57:24.828Z,10.73
2023-04-15T11:00:14.129Z,10.80
2023-04-15T11:02:45.180Z,11.47
2023-04-15T11:05:14.675Z,12.23
2023-04-15T11:07:49.930Z,11.70
2023-04-15T11:10:51.906Z,13.13
2023-04-15T11:13:27.167Z,12.70
2023-04-15T11:15:59.330Z,13.50
2023-04-15T11:18:31.896Z,12.77
2023-04-15T11:21:05.160Z,12.03
2023-04-15T11:23:39.758Z,12.90
2023-04-15T11:26:11.920Z,13.40
2023-04-15T11:28:43.271Z,13.30
2023-04-15T11:31:13.255Z,14.77
2023-04-15T11:33:48.211Z,15.00
2023-04-15T11:36:16.414Z,14.47
2023-04-15T11:38:45.969Z,16.33
2023-04-15T11:41:14.483Z,16.10
2023-04-15T11:43:43.945Z,16.93
2023-04-15T11:46:12.322Z,15.67
2023-04-15T11:48:44.611Z,15.40
2023-04-15T11:51:13.861Z,17.07
2023-04-15T11:53:46.150Z,17.10
2023-04-15T11:56:20.309Z,18.50
2023-04-15T11:58:52.962Z,17.73
2023-04-15T12:01:21.139Z,20.50
2023-04-15T12:03:50.654Z,19.30
2023-04-15T12:06:20.762Z,20.57
2023-04-15T12:08:54.092Z,20.33
2023-04-15T12:11:28.561Z,20.70
2023-04-15T12:13:59.632Z,20.47
2023-04-15T12:16:29.445Z,23.40
2023-04-15T12:18:58.945Z,21.57
2023-04-15T12:21:29.169Z,24.07
2023-04-15T12:23:58.911Z,22.63
2023-04-15T12:26:31.310Z,22.53
2023-04-15T12:29:04.069Z,23.70
2023-04-15T12:31:32.574Z,24.13
2023-04-15T12:34:02.172Z,25.67
2023-04-15T12:36:36.137Z,27.57
2023-04-15T12:39:05.370Z,27.20
2023-04-15T12:41:33.668Z,28.00
2023-04-15T12:44:04.040Z,28.30
2023-04-15T12:46:32.724Z,28.00
2023-04-15T12:49:00.867Z,28.87
2023-04-15T12:51:42.581Z,28.60
2023-04-15T12:54:11.059Z,29.63
2023-04-15T12:56:39.180Z,27.97
2023-04-15T12:59:08.565Z,29.33
2023-04-15T13:01:37.073Z,31.00
2023-04-15T13:04:05.681Z,30.10
2023-04-15T13:06:34.483Z,30.53
2023-04-15T13:09:05.289Z,31.30
2023-04-15T13:11:36.502Z,32.17
2023-04-15T13:14:06.746Z,34.50
2023-04-15T13:16:37.094Z,32.30
2023-04-15T13:19:05.584Z,33.37
2023-04-15T13:21:36.246Z,34.33
2023-04-15T13:24:07.281Z,32.47
2023-04-15T13:26:36.171Z,34.77
2023-04-15T13:29:06.041Z,33.77
2023-04-15T13:31:34.393Z,35.27
2023-04-15T13:34:04.650Z,37.27
2023-04-15T13:36:33.260Z,38.53
2023-04-15T13:39:01.569Z,40.57
2023-04-15T13:41:29.783Z,38.60
2023-04-15T13:43:58.446Z,40.07
2023-04-15T13:46:26.900Z,41.77
2023-04-15T13:48:55.086Z,39.53
2023-04-15T13:51:24.576Z,42.10
2023-04-15T13:53:52.868Z,43.57
2023-04-15T13:56:21.565Z,46.97
2023-04-15T13:58:49.823Z,43.93
2023-04-15T14:01:17.994Z,44.20
2023-04-15T14:03:46.427Z,41.20
2023-04-15T14:06:14.819Z,42.20
2023-04-15T14:08:44.458Z,39.80
2023-04-15T14:11:12.599Z,41.33
2023-04-15T14:13:40.769Z,39.27
2023-04-15T14:16:09.205Z,39.93
2023-04-15T14:18:42.852Z,41.27
2023-04-15T14:21:11.349Z,41.27
2023-04-15T14:23:39.578Z,41.67
2023-04-15T14:26:09.803Z,40.60
2023-04-15T14:28:39.174Z,40.37
2023-04-15T14:31:07.727Z,43.00
2023-04-15T14:33:35.933Z,44.37
2023-04-15T14:36:04.349Z,42.67
2023-04-15T14:38:33.721Z,44.37
2023-04-15T14:41:02.059Z,46.90
2023-04-15T14:43:31.773Z,43.97
2023-04-15T14:46:00.182Z,46.10
2023-04-15T14:48:28.396Z,45.67
2023-04-15T14:50:56.555Z,43.97
2023-04-15T14:53:28.467Z,42.87
2023-04-15T14:56:00.560Z,41.70
2023-04-15T14:58:28.741Z,43.30
2023-04-15T15:00:58.469Z,39.37
2023-04-15T15:03:27.143Z,41.30
2023-04-15T15:05:57.706Z,40.77
2023-04-15T15:08:32.343Z,39.73
2023-04-15T15:11:01.928Z,39.47
2023-04-15T15:13:31.748Z,39.90
2023-04-15T15:16:01.322Z,41.30
2023-04-15T15:18:31.222Z,41.53
2023-04-15T15:21:00.022Z,38.90
2023-04-15T15:23:28.219Z,39.27
2023-04-15T15:25:56.590Z,39.80
2023-04-15T15:28:24.675Z,37.43
2023-04-15T15:30:59.744Z,37.40
2023-04-15T15:33:31.926Z,39.53
2023-04-15T15:36:00.408Z,40.17
2023-04-15T15:38:29.321Z,40.30
2023-04-15T15:40:57.528Z,38.60
2023-04-15T15:43:25.674Z,39.60
2023-04-15T15:45:55.606Z,38.33
2023-04-15T15:48:26.664Z,40.37
2023-04-15T15:50:56.416Z,41.07
2023-04-15T15:53:25.918Z,40.10
2023-04-15T15:55:54.402Z,40.67
2023-04-15T15:58:23.022Z,39.67
2023-04-15T16:00:51.383Z,41.93
2023-04-15T16:03:19.742Z,42.03
2023-04-15T16:05:47.966Z,40.50
2023-04-15T16:08:17.514Z,42.33
2023-04-15T16:10:46.425Z,42.07
2023-04-15T16:13:14.557Z,40.93
2023-04-15T16:15:44.127Z,39.70
2023-04-15T16:18:12.759Z,40.07
2023-04-15T16:20:41.084Z,40.40
2023-04-15T16:23:14.169Z,42.40
2023-04-15T16:25:45.181Z,40.20
2023-04-15T16:28:25.670Z,43.17
2023-04-15T16:30:55.253Z,40.90
2023-04-15T16:33:23.399Z,42.60
2023-04-15T16:35:52.634Z,39.67
2023-04-15T16:38:20.915Z,40.67
2023-04-15T16:40:51.489Z,42.00
2023-04-15T16:43:19.898Z,41.60
2023-04-15T16:45:51.024Z,42.40
2023-04-15T16:48:19.987Z,42.33
2023-04-15T16:50:48.900Z,41.27
2023-04-15T16:53:17.523Z,41.43
2023-04-15T16:55:45.697Z,41.57
2023-04-15T16:58:15.202Z,43.70
2023-04-15T17:00:43.568Z,42.10
2023-04-15T17:03:12.105Z,44.07
2023-04-15T17:05:40.380Z,42.20
2023-04-15T17:08:08.596Z,42.90
2023-04-15T17:10:37.776Z,42.87
2023-04-15T17:13:05.963Z,44.53
2023-04-15T17:15:35.612Z,42.27
2023-04-15T17:18:03.853Z,43.70
2023-04-15T17:20:32.099Z,44.37
2023-04-15T17:23:00.406Z,44.30
2023-04-15T17:25:28.651Z,42.00
2023-04-15T17:27:56.779Z,42.30
2023-04-15T17:30:24.905Z,42.00
2023-04-15T17:32:54.413Z,41.20
2023-04-15T17:35:23.476Z,39.67
2023-04-15T17:37:51.661Z,41.33
2023-04-15T17:40:19.986Z,40.03
2023-04-15T17:42:48.195Z,38.60
2023-04-15T17:45:16.567Z,40.80
2023-04-15T17:47:44.830Z,40.40
2023-04-15T17:50:14.387Z,39.53
2023-04-15T17:52:42.615Z,38.67
2023-04-15T17:55:11.068Z,38.73
2023-04-15T17:57:39.306Z,39.70
2023-04-15T18:00:10.907Z,41.27
2023-04-15T18:02:41.911Z,39.07
2023-04-15T18:05:11.000Z,39.13
2023-04-15T18:07:40.752Z,38.47
2023-04-15T18:10:10.146Z,37.37
2023-04-15T18:12:38.544Z,39.13
2023-04-15T18:15:09.426Z,39.00
2023-04-15T18:17:38.069Z,39.80
2023-04-15T18:20:07.293Z,37.90
2023-04-15T18:22:35.369Z,39.63
2023-04-15T18:25:05.526Z,37.30
2023-04-15T18:27:35.557Z,38.57
2023-04-15T18:30:03.755Z,39.60
2023-04-15T18:32:32.818Z,39.37
2023-04-15T18:35:01.265Z,46.43
2023-04-15T18:37:30.334Z,42.30
2023-04-15T18:39:58.794Z,40.90
2023-04-15T18:42:28.430Z,41.07
2023-04-15T18:44:56.631Z,39.60
2023-04-15T18:47:26.922Z,40.93
2023-04-15T18:49:55.412Z,43.90
2023-04-15T18:52:23.504Z,44.00
2023-04-15T18:54:51.919Z,44.00
2023-04-15T18:57:24.968Z,40.97
2023-04-15T19:00:02.770Z,39.10
2023-04-15T19:02:31.083Z,40.30
2023-04-15T19:04:59.303Z,39.37
2023-04-15T19:07:27.489Z,39.40
2023-04-15T19:09:55.938Z,35.80
2023-04-15T19:12:24.098Z,37.40
2023-04-15T19:14:53.115Z,37.30
2023-04-15T19:17:22.779Z,35.67
2023-04-15T19:19:51.090Z,36.00
2023-04-15T19:22:19.365Z,35.13
2023-04-15T19:24:47.632Z,36.40
2023-04-15T19:27:15.917Z,34.90
2023-04-15T19:29:44.103Z,35.20
2023-04-15T19:32:13.990Z,35.03
2023-04-15T19:34:43.564Z,33.20
2023-04-15T19:37:12.720Z,34.77
2023-04-15T19:39:40.838Z,35.33
2023-04-15T19:42:09.113Z,33.57
2023-04-15T19:44:37.453Z,33.73
2023-04-15T19:47:06.090Z,33.80
2023-04-15T19:49:34.206Z,35.40
2023-04-15T19:52:04.222Z,36.83
2023-04-15T19:54:32.534Z,35.10
2023-04-15T19:57:01.510Z,32.90
2023-04-15T19:59:29.801Z,31.70
2023-04-15T20:01:58.337Z,30.20
2023-04-15T20:04:27.354Z,29.33
2023-04-15T20:06:55.865Z,26.90
2023-04-15T20:09:25.738Z,26.90
2023-04-15T20:12:09.621Z,24.53
2023-04-15T20:14:42.180Z,26.00
2023-04-15T20:17:10.369Z,24.50
2023-04-15T20:19:38.499Z,24.67
2023-04-15T20:22:06.715Z,26.23
2023-04-15T20:24:36.195Z,26.57
2023-04-15T20:27:04.470Z,26.73
2023-04-15T20:29:32.584Z,25.73
2023-04-15T20:32:00.781Z,25.63
2023-04-15T20:34:28.975Z,26.03
2023-04-15T20:36:57.187Z,25.33
2023-04-15T20:39:25.719Z,27.07
2023-04-15T20:41:56.100Z,24.97
2023-04-15T20:44:24.377Z,26.37
2023-04-15T20:46:52.867Z,26.13
2023-04-15T20:49:21.126Z,24.93
2023-04-15T20:51:50.336Z,25.30
2023-04-15T20:54:19.503Z,26.20
2023-04-15T20:56:47.705Z,25.90
2023-04-15T20:59:17.259Z,25.53
2023-04-15T21:01:45.799Z,24.00
2023-04-15T21:04:15.294Z,26.43
2023-04-15T21:06:43.699Z,27.57
2023-04-15T21:09:12.234Z,26.67
2023-04-15T21:14:14.393Z,25.70
2023-04-15T21:16:44.517Z,25.20
2023-04-15T21:19:12.975Z,26.87
2023-04-15T21:21:41.423Z,26.30
2023-04-15T21:24:09.937Z,28.30
2023-04-15T21:26:38.104Z,27.00
2023-04-15T21:29:08.758Z,27.10
2023-04-15T21:31:38.890Z,28.10
2023-04-15T21:34:08.628Z,27.50
2023-04-15T21:36:37.937Z,26.60
2023-04-15T21:39:07.015Z,27.87
2023-04-15T21:41:36.610Z,27.43
2023-04-15T21:44:04.839Z,28.00
2023-04-15T21:46:35.755Z,27.00
2023-04-15T21:49:06.458Z,28.77
2023-04-15T21:51:36.311Z,27.80
2023-04-15T21:54:04.436Z,28.07
2023-04-15T21:56:33.275Z,27.27
2023-04-15T21:59:01.550Z,28.77
2023-04-15T22:01:29.889Z,26.70
2023-04-15T22:03:58.250Z,27.07
2023-04-15T22:06:27.196Z,26.70
2023-04-15T22:08:57.934Z,27.27
2023-04-15T22:11:28.517Z,28.70
2023-04-15T22:13:57.969Z,29.10
2023-04-15T22:16:27.081Z,26.97
2023-04-15T22:18:55.839Z,28.60
2023-04-15T22:21:24.413Z,29.47
2023-04-15T22:23:53.006Z,27.27
2023-04-15T22:26:42.562Z,27.30
2023-04-15T22:29:11.229Z,27.90
2023-04-15T22:31:39.481Z,26.73
2023-04-15T22:34:08.543Z,28.07
2023-04-15T22:36:36.808Z,27.50
2023-04-15T22:39:05.342Z,28.00
2023-04-15T22:41:33.686Z,27.87
2023-04-15T22:44:03.160Z,27.97
2023-04-15T22:46:31.470Z,28.10
2023-04-15T22:48:59.849Z,29.27
2023-04-15T22:51:28.194Z,30.33
2023-04-15T22:53:56.627Z,28.30
2023-04-15T22:56:24.852Z,28.70
2023-04-15T22:58:53.371Z,28.67
2023-04-15T23:01:23.057Z,30.30
2023-04-15T23:03:57.215Z,28.83
2023-04-15T23:06:31.138Z,28.93
2023-04-15T23:08:59.281Z,29.47
2023-04-15T23:11:27.388Z,29.63
2023-04-15T23:13:55.488Z,29.43
2023-04-15T23:16:25.072Z,30.10
2023-04-15T23:18:53.213Z,29.20
2023-04-15T23:21:22.218Z,29.10
2023-04-15T23:23:51.428Z,28.80
2023-04-15T23:26:19.609Z,29.83
2023-04-15T23:28:47.704Z,29.80
2023-04-15T23:31:15.966Z,28.20
2023-04-15T23:33:45.688Z,29.60
2023-04-15T23:36:13.777Z,29.60
2023-04-15T23:38:41.858Z,29.60
2023-04-15T23:41:11.850Z,29.27
2023-04-15T23:43:39.953Z,28.40
2023-04-15T23:46:08.570Z,28.40
2023-04-15T23:48:36.760Z,29.80
2023-04-15T23:51:06.654Z,28.57
2023-04-15T23:53:34.786Z,29.40
2023-04-15T23:56:03.249Z,28.77
2023-04-15T23:58:32.895Z,28.57
